sensor_id;sensor_type;location;lat;lon;timestamp;temperature;humidity
41471;DHT22;27211;51.220;5.308;2023-08-08T00:01:36;15.00;99.90
41471;DHT22;27211;51.220;5.308;2023-08-08T00:04:05;15.00;99.90
41471;DHT22;27211;51.220;5.308;2023-08-08T00:06:30;15.00;99.90
41471;DHT22;27211;51.220;5.308;2023-08-08T00:08:56;15.10;99.90
41471;DHT22;27211;51.220;5.308;2023-08-08T00:11:21;15.00;99.90
41471;DHT22;27211;51.220;5.308;2023-08-08T00:13:47;15.00;99.90
41471;DHT22;27211;51.220;5.308;2023-08-08T00:16:12;14.90;99.90
41471;DHT22;27211;51.220;5.308;2023-08-08T00:18:38;14.90;99.90
41471;DHT22;27211;51.220;5.308;2023-08-08T00:21:04;14.80;99.90
41471;DHT22;27211;51.220;5.308;2023-08-08T00:23:32;14.70;99.90
41471;DHT22;27211;51.220;5.308;2023-08-08T00:26:00;14.70;99.90
41471;DHT22;27211;51.220;5.308;2023-08-08T00:28:26;14.70;99.90
41471;DHT22;27211;51.220;5.308;2023-08-08T00:30:54;14.50;99.90
41471;DHT22;27211;51.220;5.308;2023-08-08T00:33:37;14.50;99.90
41471;DHT22;27211;51.220;5.308;2023-08-08T00:36:05;14.70;99.90
41471;DHT22;27211;51.220;5.308;2023-08-08T00:38:31;14.70;99.90
41471;DHT22;27211;51.220;5.308;2023-08-08T00:40:56;14.60;99.90
41471;DHT22;27211;51.220;5.308;2023-08-08T00:43:22;14.50;99.90
41471;DHT22;27211;51.220;5.308;2023-08-08T00:45:50;14.40;99.90
41471;DHT22;27211;51.220;5.308;2023-08-08T00:48:16;14.40;99.90
41471;DHT22;27211;51.220;5.308;2023-08-08T00:50:44;14.70;99.90
41471;DHT22;27211;51.220;5.308;2023-08-08T00:53:11;14.50;99.90
41471;DHT22;27211;51.220;5.308;2023-08-08T00:55:37;14.60;99.90
41471;DHT22;27211;51.220;5.308;2023-08-08T00:58:03;14.70;99.90
41471;DHT22;27211;51.220;5.308;2023-08-08T01:00:29;14.80;99.90
41471;DHT22;27211;51.220;5.308;2023-08-08T01:02:54;14.80;99.90
41471;DHT22;27211;51.220;5.308;2023-08-08T01:05:23;14.60;99.90
41471;DHT22;27211;51.220;5.308;2023-08-08T01:08:03;14.70;99.90
41471;DHT22;27211;51.220;5.308;2023-08-08T01:10:30;14.70;99.90
41471;DHT22;27211;51.220;5.308;2023-08-08T01:13:00;14.60;99.90
41471;DHT22;27211;51.220;5.308;2023-08-08T01:15:28;14.60;99.90
41471;DHT22;27211;51.220;5.308;2023-08-08T01:17:54;14.60;99.90
41471;DHT22;27211;51.220;5.308;2023-08-08T01:20:20;14.60;99.90
41471;DHT22;27211;51.220;5.308;2023-08-08T01:22:50;14.60;99.90
41471;DHT22;27211;51.220;5.308;2023-08-08T01:25:21;14.50;99.90
41471;DHT22;27211;51.220;5.308;2023-08-08T01:27:46;14.30;99.90
41471;DHT22;27211;51.220;5.308;2023-08-08T01:30:12;14.30;99.90
41471;DHT22;27211;51.220;5.308;2023-08-08T01:32:38;14.40;99.90
41471;DHT22;27211;51.220;5.308;2023-08-08T01:35:04;14.50;99.90
41471;DHT22;27211;51.220;5.308;2023-08-08T01:37:35;14.60;99.90
41471;DHT22;27211;51.220;5.308;2023-08-08T01:40:02;14.50;99.90
41471;DHT22;27211;51.220;5.308;2023-08-08T01:42:28;14.50;99.90
41471;DHT22;27211;51.220;5.308;2023-08-08T01:44:54;14.40;99.90
41471;DHT22;27211;51.220;5.308;2023-08-08T01:47:21;14.50;99.90
41471;DHT22;27211;51.220;5.308;2023-08-08T01:49:47;14.40;99.90
41471;DHT22;27211;51.220;5.308;2023-08-08T01:52:15;14.40;99.90
41471;DHT22;27211;51.220;5.308;2023-08-08T01:54:48;14.40;99.90
41471;DHT22;27211;51.220;5.308;2023-08-08T01:57:14;14.40;99.90
41471;DHT22;27211;51.220;5.308;2023-08-08T01:59:39;14.50;99.90
41471;DHT22;27211;51.220;5.308;2023-08-08T02:02:05;14.40;99.90
41471;DHT22;27211;51.220;5.308;2023-08-08T02:04:33;14.50;99.90
41471;DHT22;27211;51.220;5.308;2023-08-08T02:06:59;14.50;99.90
41471;DHT22;27211;51.220;5.308;2023-08-08T02:09:25;14.50;99.90
41471;DHT22;27211;51.220;5.308;2023-08-08T02:11:50;14.20;99.90
41471;DHT22;27211;51.220;5.308;2023-08-08T02:14:16;14.20;99.90
41471;DHT22;27211;51.220;5.308;2023-08-08T02:16:46;14.30;99.90
41471;DHT22;27211;51.220;5.308;2023-08-08T02:19:12;14.40;99.90
41471;DHT22;27211;51.220;5.308;2023-08-08T02:21:37;14.50;99.90
41471;DHT22;27211;51.220;5.308;2023-08-08T02:24:03;14.40;99.90
41471;DHT22;27211;51.220;5.308;2023-08-08T02:26:31;14.50;99.90
41471;DHT22;27211;51.220;5.308;2023-08-08T02:28:57;14.50;99.90
41471;DHT22;27211;51.220;5.308;2023-08-08T02:31:25;14.50;99.90
41471;DHT22;27211;51.220;5.308;2023-08-08T02:33:52;14.40;99.90
41471;DHT22;27211;51.220;5.308;2023-08-08T02:36:18;14.30;99.90
41471;DHT22;27211;51.220;5.308;2023-08-08T02:38:46;14.50;99.90
41471;DHT22;27211;51.220;5.308;2023-08-08T02:41:19;14.30;99.90
41471;DHT22;27211;51.220;5.308;2023-08-08T02:43:45;14.10;99.90
41471;DHT22;27211;51.220;5.308;2023-08-08T02:46:11;14.10;99.90
41471;DHT22;27211;51.220;5.308;2023-08-08T02:48:36;14.10;99.90
41471;DHT22;27211;51.220;5.308;2023-08-08T02:51:05;14.00;99.90
41471;DHT22;27211;51.220;5.308;2023-08-08T02:53:34;14.00;99.90
41471;DHT22;27211;51.220;5.308;2023-08-08T02:56:00;13.90;99.90
41471;DHT22;27211;51.220;5.308;2023-08-08T02:58:29;13.90;99.90
41471;DHT22;27211;51.220;5.308;2023-08-08T03:00:57;13.90;99.90
41471;DHT22;27211;51.220;5.308;2023-08-08T03:03:22;14.00;99.90
41471;DHT22;27211;51.220;5.308;2023-08-08T03:05:49;13.90;99.90
41471;DHT22;27211;51.220;5.308;2023-08-08T03:08:14;14.00;99.90
41471;DHT22;27211;51.220;5.308;2023-08-08T03:10:40;14.00;99.90
41471;DHT22;27211;51.220;5.308;2023-08-08T03:13:06;13.90;99.90
41471;DHT22;27211;51.220;5.308;2023-08-08T03:15:32;13.90;99.90
41471;DHT22;27211;51.220;5.308;2023-08-08T03:17:57;13.80;99.90
41471;DHT22;27211;51.220;5.308;2023-08-08T03:20:26;13.90;99.90
41471;DHT22;27211;51.220;5.308;2023-08-08T03:22:51;14.10;99.90
41471;DHT22;27211;51.220;5.308;2023-08-08T03:25:17;13.80;99.90
41471;DHT22;27211;51.220;5.308;2023-08-08T03:27:45;14.00;99.90
41471;DHT22;27211;51.220;5.308;2023-08-08T03:30:10;13.80;99.90
41471;DHT22;27211;51.220;5.308;2023-08-08T03:32:39;13.70;99.90
41471;DHT22;27211;51.220;5.308;2023-08-08T03:35:04;13.90;99.90
41471;DHT22;27211;51.220;5.308;2023-08-08T03:37:30;14.10;99.90
41471;DHT22;27211;51.220;5.308;2023-08-08T03:39:55;14.00;99.90
41471;DHT22;27211;51.220;5.308;2023-08-08T03:42:24;14.00;99.90
41471;DHT22;27211;51.220;5.308;2023-08-08T03:44:49;14.10;99.90
41471;DHT22;27211;51.220;5.308;2023-08-08T03:47:23;14.10;99.90
41471;DHT22;27211;51.220;5.308;2023-08-08T03:49:49;14.00;99.90
41471;DHT22;27211;51.220;5.308;2023-08-08T03:52:17;14.10;99.90
41471;DHT22;27211;51.220;5.308;2023-08-08T03:54:45;14.10;99.90
41471;DHT22;27211;51.220;5.308;2023-08-08T03:57:10;14.10;99.90
41471;DHT22;27211;51.220;5.308;2023-08-08T03:59:36;14.00;99.90
41471;DHT22;27211;51.220;5.308;2023-08-08T04:02:05;14.20;99.90
41471;DHT22;27211;51.220;5.308;2023-08-08T04:04:31;14.10;99.90
41471;DHT22;27211;51.220;5.308;2023-08-08T04:06:56;13.90;99.90
41471;DHT22;27211;51.220;5.308;2023-08-08T04:09:22;13.90;99.90
41471;DHT22;27211;51.220;5.308;2023-08-08T04:11:48;13.90;99.90
41471;DHT22;27211;51.220;5.308;2023-08-08T04:14:13;13.80;99.90
41471;DHT22;27211;51.220;5.308;2023-08-08T04:16:39;13.70;99.90
41471;DHT22;27211;51.220;5.308;2023-08-08T04:19:05;13.70;99.90
41471;DHT22;27211;51.220;5.308;2023-08-08T04:21:30;13.80;99.90
41471;DHT22;27211;51.220;5.308;2023-08-08T04:23:58;13.90;99.90
41471;DHT22;27211;51.220;5.308;2023-08-08T04:26:24;13.80;99.90
41471;DHT22;27211;51.220;5.308;2023-08-08T04:28:49;13.80;99.90
41471;DHT22;27211;51.220;5.308;2023-08-08T04:31:15;13.90;99.90
41471;DHT22;27211;51.220;5.308;2023-08-08T04:33:41;13.90;99.90
41471;DHT22;27211;51.220;5.308;2023-08-08T04:36:06;13.80;99.90
41471;DHT22;27211;51.220;5.308;2023-08-08T04:38:32;13.70;99.90
41471;DHT22;27211;51.220;5.308;2023-08-08T04:40:57;13.70;99.90
41471;DHT22;27211;51.220;5.308;2023-08-08T04:43:24;13.70;99.90
41471;DHT22;27211;51.220;5.308;2023-08-08T04:45:50;13.70;99.90
41471;DHT22;27211;51.220;5.308;2023-08-08T04:48:18;13.90;99.90
41471;DHT22;27211;51.220;5.308;2023-08-08T04:50:45;13.90;99.90
41471;DHT22;27211;51.220;5.308;2023-08-08T04:53:13;13.90;99.90
41471;DHT22;27211;51.220;5.308;2023-08-08T04:55:39;14.10;99.90
41471;DHT22;27211;51.220;5.308;2023-08-08T04:58:05;14.00;99.90
41471;DHT22;27211;51.220;5.308;2023-08-08T05:00:31;14.00;99.90
41471;DHT22;27211;51.220;5.308;2023-08-08T05:02:56;14.00;99.90
41471;DHT22;27211;51.220;5.308;2023-08-08T05:05:22;14.20;99.90
41471;DHT22;27211;51.220;5.308;2023-08-08T05:07:48;14.20;99.90
41471;DHT22;27211;51.220;5.308;2023-08-08T05:10:16;14.20;99.90
41471;DHT22;27211;51.220;5.308;2023-08-08T05:12:42;14.20;99.90
41471;DHT22;27211;51.220;5.308;2023-08-08T05:15:07;14.10;99.90
41471;DHT22;27211;51.220;5.308;2023-08-08T05:17:36;14.10;99.90
41471;DHT22;27211;51.220;5.308;2023-08-08T05:20:02;14.50;99.90
41471;DHT22;27211;51.220;5.308;2023-08-08T05:22:28;14.50;99.90
41471;DHT22;27211;51.220;5.308;2023-08-08T05:24:54;14.60;99.90
41471;DHT22;27211;51.220;5.308;2023-08-08T05:27:19;14.70;99.90
41471;DHT22;27211;51.220;5.308;2023-08-08T05:29:45;14.80;99.90
41471;DHT22;27211;51.220;5.308;2023-08-08T05:32:11;15.10;99.90
41471;DHT22;27211;51.220;5.308;2023-08-08T05:34:37;15.30;99.90
41471;DHT22;27211;51.220;5.308;2023-08-08T05:37:02;15.50;99.90
41471;DHT22;27211;51.220;5.308;2023-08-08T05:39:29;15.60;99.90
41471;DHT22;27211;51.220;5.308;2023-08-08T05:41:55;15.70;99.90
41471;DHT22;27211;51.220;5.308;2023-08-08T05:44:20;15.60;99.90
41471;DHT22;27211;51.220;5.308;2023-08-08T05:46:46;15.60;99.90
41471;DHT22;27211;51.220;5.308;2023-08-08T05:49:11;15.70;99.90
41471;DHT22;27211;51.220;5.308;2023-08-08T05:51:37;15.90;99.90
41471;DHT22;27211;51.220;5.308;2023-08-08T05:54:02;16.00;99.90
41471;DHT22;27211;51.220;5.308;2023-08-08T05:56:35;15.90;99.90
41471;DHT22;27211;51.220;5.308;2023-08-08T05:59:04;15.90;99.90
41471;DHT22;27211;51.220;5.308;2023-08-08T06:01:30;15.80;99.90
41471;DHT22;27211;51.220;5.308;2023-08-08T06:03:56;16.00;99.90
41471;DHT22;27211;51.220;5.308;2023-08-08T06:06:24;15.90;99.90
41471;DHT22;27211;51.220;5.308;2023-08-08T06:08:50;15.90;99.90
41471;DHT22;27211;51.220;5.308;2023-08-08T06:11:16;16.10;99.90
41471;DHT22;27211;51.220;5.308;2023-08-08T06:13:41;16.20;99.90
41471;DHT22;27211;51.220;5.308;2023-08-08T06:16:07;16.30;99.90
41471;DHT22;27211;51.220;5.308;2023-08-08T06:18:33;16.60;99.90
41471;DHT22;27211;51.220;5.308;2023-08-08T06:20:59;17.00;99.90
41471;DHT22;27211;51.220;5.308;2023-08-08T06:23:24;17.00;99.90
41471;DHT22;27211;51.220;5.308;2023-08-08T06:25:50;16.80;99.90
41471;DHT22;27211;51.220;5.308;2023-08-08T06:28:16;17.00;99.90
41471;DHT22;27211;51.220;5.308;2023-08-08T06:30:42;17.10;99.90
41471;DHT22;27211;51.220;5.308;2023-08-08T06:33:07;17.10;99.90
41471;DHT22;27211;51.220;5.308;2023-08-08T06:35:33;17.10;99.90
41471;DHT22;27211;51.220;5.308;2023-08-08T06:37:59;16.80;99.90
41471;DHT22;27211;51.220;5.308;2023-08-08T06:40:25;16.90;99.90
41471;DHT22;27211;51.220;5.308;2023-08-08T06:42:51;17.10;99.90
41471;DHT22;27211;51.220;5.308;2023-08-08T06:45:16;17.50;99.90
41471;DHT22;27211;51.220;5.308;2023-08-08T06:47:43;18.00;99.90
41471;DHT22;27211;51.220;5.308;2023-08-08T06:50:08;18.20;99.90
41471;DHT22;27211;51.220;5.308;2023-08-08T06:52:34;18.20;99.90
41471;DHT22;27211;51.220;5.308;2023-08-08T06:55:00;18.20;99.90
41471;DHT22;27211;51.220;5.308;2023-08-08T06:57:26;17.90;99.90
41471;DHT22;27211;51.220;5.308;2023-08-08T06:59:52;17.80;99.90
41471;DHT22;27211;51.220;5.308;2023-08-08T07:02:18;17.60;99.90
41471;DHT22;27211;51.220;5.308;2023-08-08T07:04:45;17.50;99.90
41471;DHT22;27211;51.220;5.308;2023-08-08T07:07:10;17.80;99.90
41471;DHT22;27211;51.220;5.308;2023-08-08T07:09:36;17.70;99.90
41471;DHT22;27211;51.220;5.308;2023-08-08T07:12:03;17.60;99.90
41471;DHT22;27211;51.220;5.308;2023-08-08T07:14:28;17.50;99.90
41471;DHT22;27211;51.220;5.308;2023-08-08T07:16:54;17.40;99.90
41471;DHT22;27211;51.220;5.308;2023-08-08T07:19:21;17.30;99.90
41471;DHT22;27211;51.220;5.308;2023-08-08T07:21:46;17.30;99.90
41471;DHT22;27211;51.220;5.308;2023-08-08T07:24:12;17.20;99.90
41471;DHT22;27211;51.220;5.308;2023-08-08T07:26:38;17.30;99.90
41471;DHT22;27211;51.220;5.308;2023-08-08T07:29:04;17.40;99.90
41471;DHT22;27211;51.220;5.308;2023-08-08T07:31:31;17.80;99.90
41471;DHT22;27211;51.220;5.308;2023-08-08T07:33:57;17.90;99.90
41471;DHT22;27211;51.220;5.308;2023-08-08T07:36:23;18.10;99.90
41471;DHT22;27211;51.220;5.308;2023-08-08T07:38:49;18.30;99.90
41471;DHT22;27211;51.220;5.308;2023-08-08T07:41:14;18.60;99.90
41471;DHT22;27211;51.220;5.308;2023-08-08T07:43:40;18.70;99.90
41471;DHT22;27211;51.220;5.308;2023-08-08T07:46:05;18.80;99.90
41471;DHT22;27211;51.220;5.308;2023-08-08T07:48:31;18.80;99.90
41471;DHT22;27211;51.220;5.308;2023-08-08T07:50:57;18.70;99.90
41471;DHT22;27211;51.220;5.308;2023-08-08T07:53:23;18.90;99.90
41471;DHT22;27211;51.220;5.308;2023-08-08T07:55:48;19.10;99.90
41471;DHT22;27211;51.220;5.308;2023-08-08T07:58:14;19.20;99.90
41471;DHT22;27211;51.220;5.308;2023-08-08T08:00:40;19.50;99.90
41471;DHT22;27211;51.220;5.308;2023-08-08T08:03:06;19.70;99.90
41471;DHT22;27211;51.220;5.308;2023-08-08T08:05:31;20.10;99.90
41471;DHT22;27211;51.220;5.308;2023-08-08T08:07:59;20.10;99.90
41471;DHT22;27211;51.220;5.308;2023-08-08T08:10:25;20.00;99.90
41471;DHT22;27211;51.220;5.308;2023-08-08T08:12:51;20.30;99.90
41471;DHT22;27211;51.220;5.308;2023-08-08T08:15:23;20.20;99.90
41471;DHT22;27211;51.220;5.308;2023-08-08T08:17:49;20.20;99.90
41471;DHT22;27211;51.220;5.308;2023-08-08T08:20:14;20.50;99.90
41471;DHT22;27211;51.220;5.308;2023-08-08T08:22:40;20.60;99.90
41471;DHT22;27211;51.220;5.308;2023-08-08T08:25:06;20.50;99.90
41471;DHT22;27211;51.220;5.308;2023-08-08T08:27:34;20.20;99.90
41471;DHT22;27211;51.220;5.308;2023-08-08T08:30:00;19.80;99.90
41471;DHT22;27211;51.220;5.308;2023-08-08T08:32:26;19.70;99.90
41471;DHT22;27211;51.220;5.308;2023-08-08T08:34:51;19.50;99.90
41471;DHT22;27211;51.220;5.308;2023-08-08T08:37:17;19.40;99.90
41471;DHT22;27211;51.220;5.308;2023-08-08T08:39:43;19.30;99.90
41471;DHT22;27211;51.220;5.308;2023-08-08T08:42:08;19.40;99.90
41471;DHT22;27211;51.220;5.308;2023-08-08T08:44:35;19.30;99.90
41471;DHT22;27211;51.220;5.308;2023-08-08T08:47:02;19.20;99.90
41471;DHT22;27211;51.220;5.308;2023-08-08T08:49:31;19.20;99.90
41471;DHT22;27211;51.220;5.308;2023-08-08T08:52:00;19.10;99.90
41471;DHT22;27211;51.220;5.308;2023-08-08T08:54:27;19.20;99.90
41471;DHT22;27211;51.220;5.308;2023-08-08T08:56:53;19.10;99.90
41471;DHT22;27211;51.220;5.308;2023-08-08T08:59:19;19.40;99.90
41471;DHT22;27211;51.220;5.308;2023-08-08T09:01:45;19.00;99.90
41471;DHT22;27211;51.220;5.308;2023-08-08T09:04:11;18.90;99.90
41471;DHT22;27211;51.220;5.308;2023-08-08T09:06:38;18.90;99.90
41471;DHT22;27211;51.220;5.308;2023-08-08T09:09:06;19.10;99.90
41471;DHT22;27211;51.220;5.308;2023-08-08T09:11:31;19.00;99.90
41471;DHT22;27211;51.220;5.308;2023-08-08T09:13:57;18.90;99.90
41471;DHT22;27211;51.220;5.308;2023-08-08T09:16:23;19.00;99.90
41471;DHT22;27211;51.220;5.308;2023-08-08T09:18:48;19.20;99.90
41471;DHT22;27211;51.220;5.308;2023-08-08T09:21:14;19.20;99.90
41471;DHT22;27211;51.220;5.308;2023-08-08T09:23:41;18.90;99.90
41471;DHT22;27211;51.220;5.308;2023-08-08T09:26:06;19.20;99.90
41471;DHT22;27211;51.220;5.308;2023-08-08T09:28:32;19.00;99.90
41471;DHT22;27211;51.220;5.308;2023-08-08T09:30:58;18.90;99.90
41471;DHT22;27211;51.220;5.308;2023-08-08T09:33:27;18.60;99.90
41471;DHT22;27211;51.220;5.308;2023-08-08T09:35:53;18.60;99.90
41471;DHT22;27211;51.220;5.308;2023-08-08T09:38:20;18.70;99.90
41471;DHT22;27211;51.220;5.308;2023-08-08T09:40:46;18.90;99.90
41471;DHT22;27211;51.220;5.308;2023-08-08T09:43:12;18.90;99.90
41471;DHT22;27211;51.220;5.308;2023-08-08T09:45:38;19.20;99.90
41471;DHT22;27211;51.220;5.308;2023-08-08T09:48:05;19.40;99.90
41471;DHT22;27211;51.220;5.308;2023-08-08T09:50:32;19.60;99.90
41471;DHT22;27211;51.220;5.308;2023-08-08T09:52:58;19.70;99.90
41471;DHT22;27211;51.220;5.308;2023-08-08T09:55:24;19.60;99.90
41471;DHT22;27211;51.220;5.308;2023-08-08T09:57:50;19.60;99.90
41471;DHT22;27211;51.220;5.308;2023-08-08T10:00:16;19.90;99.90
41471;DHT22;27211;51.220;5.308;2023-08-08T10:02:43;19.80;99.90
41471;DHT22;27211;51.220;5.308;2023-08-08T10:05:09;19.90;99.90
41471;DHT22;27211;51.220;5.308;2023-08-08T10:07:35;19.70;99.90
41471;DHT22;27211;51.220;5.308;2023-08-08T10:10:02;19.20;99.90
41471;DHT22;27211;51.220;5.308;2023-08-08T10:12:28;19.10;99.90
41471;DHT22;27211;51.220;5.308;2023-08-08T10:14:54;18.90;99.90
41471;DHT22;27211;51.220;5.308;2023-08-08T10:17:20;18.70;99.90
41471;DHT22;27211;51.220;5.308;2023-08-08T10:19:50;18.40;99.90
41471;DHT22;27211;51.220;5.308;2023-08-08T10:22:19;18.60;99.90
41471;DHT22;27211;51.220;5.308;2023-08-08T10:24:46;18.30;99.90
41471;DHT22;27211;51.220;5.308;2023-08-08T10:27:13;18.30;99.90
41471;DHT22;27211;51.220;5.308;2023-08-08T10:29:40;18.20;99.90
41471;DHT22;27211;51.220;5.308;2023-08-08T10:32:07;18.40;99.90
41471;DHT22;27211;51.220;5.308;2023-08-08T10:34:36;19.00;99.90
41471;DHT22;27211;51.220;5.308;2023-08-08T10:37:04;19.30;99.90
41471;DHT22;27211;51.220;5.308;2023-08-08T10:39:30;19.60;99.90
41471;DHT22;27211;51.220;5.308;2023-08-08T10:41:59;19.80;99.90
41471;DHT22;27211;51.220;5.308;2023-08-08T10:44:26;20.00;99.90
41471;DHT22;27211;51.220;5.308;2023-08-08T10:46:52;20.50;99.90
41471;DHT22;27211;51.220;5.308;2023-08-08T10:49:18;21.20;99.90
41471;DHT22;27211;51.220;5.308;2023-08-08T10:51:44;22.20;99.90
41471;DHT22;27211;51.220;5.308;2023-08-08T10:54:22;23.40;99.90
41471;DHT22;27211;51.220;5.308;2023-08-08T10:56:52;23.20;99.90
41471;DHT22;27211;51.220;5.308;2023-08-08T10:59:19;22.40;99.90
41471;DHT22;27211;51.220;5.308;2023-08-08T11:01:45;22.00;99.90
41471;DHT22;27211;51.220;5.308;2023-08-08T11:04:11;21.70;99.90
41471;DHT22;27211;51.220;5.308;2023-08-08T11:06:37;21.80;99.90
41471;DHT22;27211;51.220;5.308;2023-08-08T11:09:06;21.30;99.90
41471;DHT22;27211;51.220;5.308;2023-08-08T11:11:36;21.20;99.90
41471;DHT22;27211;51.220;5.308;2023-08-08T11:14:08;22.50;99.90
41471;DHT22;27211;51.220;5.308;2023-08-08T11:16:34;24.10;99.90
41471;DHT22;27211;51.220;5.308;2023-08-08T11:18:59;25.50;99.90
41471;DHT22;27211;51.220;5.308;2023-08-08T11:21:28;25.60;99.90
41471;DHT22;27211;51.220;5.308;2023-08-08T11:23:54;26.50;99.00
41471;DHT22;27211;51.220;5.308;2023-08-08T11:26:20;26.40;98.10
41471;DHT22;27211;51.220;5.308;2023-08-08T11:28:49;25.80;97.80
41471;DHT22;27211;51.220;5.308;2023-08-08T11:31:15;24.70;99.60
41471;DHT22;27211;51.220;5.308;2023-08-08T11:33:43;23.90;99.90
41471;DHT22;27211;51.220;5.308;2023-08-08T11:36:09;23.30;99.90
41471;DHT22;27211;51.220;5.308;2023-08-08T11:38:35;22.80;99.90
41471;DHT22;27211;51.220;5.308;2023-08-08T11:41:04;22.20;99.90
41471;DHT22;27211;51.220;5.308;2023-08-08T11:43:30;22.00;99.90
41471;DHT22;27211;51.220;5.308;2023-08-08T11:45:56;22.10;99.90
41471;DHT22;27211;51.220;5.308;2023-08-08T11:48:21;21.90;99.90
41471;DHT22;27211;51.220;5.308;2023-08-08T11:50:47;22.10;99.90
41471;DHT22;27211;51.220;5.308;2023-08-08T14:57:18;25.00;85.80
41471;DHT22;27211;51.220;5.308;2023-08-08T14:59:49;24.50;87.30
41471;DHT22;27211;51.220;5.308;2023-08-08T15:02:19;24.10;90.10
41471;DHT22;27211;51.220;5.308;2023-08-08T15:04:47;24.30;90.20
41471;DHT22;27211;51.220;5.308;2023-08-08T15:07:17;24.10;90.40
41471;DHT22;27211;51.220;5.308;2023-08-08T15:09:47;23.70;90.90
41471;DHT22;27211;51.220;5.308;2023-08-08T15:12:16;23.30;91.90
41471;DHT22;27211;51.220;5.308;2023-08-08T15:14:49;23.40;92.00
41471;DHT22;27211;51.220;5.308;2023-08-08T15:17:17;23.20;92.50
41471;DHT22;27211;51.220;5.308;2023-08-08T15:19:46;22.90;92.70
41471;DHT22;27211;51.220;5.308;2023-08-08T15:22:13;22.70;93.00
41471;DHT22;27211;51.220;5.308;2023-08-08T15:24:41;22.70;93.30
41471;DHT22;27211;51.220;5.308;2023-08-08T15:27:10;22.70;93.60
41471;DHT22;27211;51.220;5.308;2023-08-08T15:29:44;22.70;93.80
41471;DHT22;27211;51.220;5.308;2023-08-08T15:32:12;22.80;93.90
41471;DHT22;27211;51.220;5.308;2023-08-08T15:34:40;22.80;93.90
41471;DHT22;27211;51.220;5.308;2023-08-08T15:37:09;22.60;94.00
41471;DHT22;27211;51.220;5.308;2023-08-08T15:39:37;22.70;94.30
41471;DHT22;27211;51.220;5.308;2023-08-08T15:42:05;22.60;94.40
41471;DHT22;27211;51.220;5.308;2023-08-08T15:44:33;22.40;94.90
41471;DHT22;27211;51.220;5.308;2023-08-08T15:47:00;22.30;95.30
41471;DHT22;27211;51.220;5.308;2023-08-08T15:49:28;22.20;95.80
41471;DHT22;27211;51.220;5.308;2023-08-08T15:51:56;22.20;96.20
41471;DHT22;27211;51.220;5.308;2023-08-08T15:54:24;22.20;96.10
41471;DHT22;27211;51.220;5.308;2023-08-08T15:56:51;21.90;96.20
41471;DHT22;27211;51.220;5.308;2023-08-08T15:59:19;21.90;96.20
41471;DHT22;27211;51.220;5.308;2023-08-08T16:01:47;22.00;96.50
41471;DHT22;27211;51.220;5.308;2023-08-08T16:04:15;22.00;96.70
41471;DHT22;27211;51.220;5.308;2023-08-08T16:06:43;21.50;97.70
41471;DHT22;27211;51.220;5.308;2023-08-08T16:09:11;21.40;98.70
41471;DHT22;27211;51.220;5.308;2023-08-08T16:11:39;21.20;99.30
41471;DHT22;27211;51.220;5.308;2023-08-08T16:14:07;21.00;99.90
41471;DHT22;27211;51.220;5.308;2023-08-08T16:16:35;20.90;99.90
41471;DHT22;27211;51.220;5.308;2023-08-08T16:19:03;20.70;99.90
41471;DHT22;27211;51.220;5.308;2023-08-08T16:21:31;20.80;99.90
41471;DHT22;27211;51.220;5.308;2023-08-08T16:23:58;20.90;99.90
41471;DHT22;27211;51.220;5.308;2023-08-08T16:26:26;20.90;99.90
41471;DHT22;27211;51.220;5.308;2023-08-08T16:28:54;20.60;99.90
41471;DHT22;27211;51.220;5.308;2023-08-08T16:31:22;19.90;99.90
41471;DHT22;27211;51.220;5.308;2023-08-08T16:33:50;19.50;99.90
41471;DHT22;27211;51.220;5.308;2023-08-08T16:36:24;19.30;99.90
41471;DHT22;27211;51.220;5.308;2023-08-08T16:38:52;19.20;99.90
41471;DHT22;27211;51.220;5.308;2023-08-08T16:41:20;19.10;99.90
41471;DHT22;27211;51.220;5.308;2023-08-08T16:44:10;19.10;99.90
41471;DHT22;27211;51.220;5.308;2023-08-08T16:46:35;19.30;99.90
41471;DHT22;27211;51.220;5.308;2023-08-08T16:49:03;19.50;99.90
41471;DHT22;27211;51.220;5.308;2023-08-08T16:51:33;19.80;99.90
41471;DHT22;27211;51.220;5.308;2023-08-08T16:54:01;19.90;99.90
41471;DHT22;27211;51.220;5.308;2023-08-08T16:56:29;20.20;99.90
41471;DHT22;27211;51.220;5.308;2023-08-08T16:58:57;20.40;99.90
41471;DHT22;27211;51.220;5.308;2023-08-08T17:01:24;20.30;99.90
41471;DHT22;27211;51.220;5.308;2023-08-08T17:03:59;20.40;99.90
41471;DHT22;27211;51.220;5.308;2023-08-08T17:06:27;20.30;99.90
41471;DHT22;27211;51.220;5.308;2023-08-08T17:08:56;19.70;99.90
41471;DHT22;27211;51.220;5.308;2023-08-08T17:11:31;19.40;99.90
41471;DHT22;27211;51.220;5.308;2023-08-08T17:13:59;19.30;99.90
41471;DHT22;27211;51.220;5.308;2023-08-08T17:16:26;19.10;99.90
41471;DHT22;27211;51.220;5.308;2023-08-08T17:18:54;19.00;99.90
41471;DHT22;27211;51.220;5.308;2023-08-08T17:21:22;18.90;99.90
41471;DHT22;27211;51.220;5.308;2023-08-08T17:23:50;18.70;99.90
41471;DHT22;27211;51.220;5.308;2023-08-08T17:26:18;18.70;99.90
41471;DHT22;27211;51.220;5.308;2023-08-08T17:28:46;18.50;99.90
41471;DHT22;27211;51.220;5.308;2023-08-08T17:31:15;18.30;99.90
41471;DHT22;27211;51.220;5.308;2023-08-08T17:33:42;18.30;99.90
41471;DHT22;27211;51.220;5.308;2023-08-08T17:36:11;18.10;99.90
41471;DHT22;27211;51.220;5.308;2023-08-08T17:38:38;18.20;99.90
41471;DHT22;27211;51.220;5.308;2023-08-08T17:41:06;18.20;99.90
41471;DHT22;27211;51.220;5.308;2023-08-08T17:43:34;18.40;99.90
41471;DHT22;27211;51.220;5.308;2023-08-08T17:46:02;18.50;99.90
41471;DHT22;27211;51.220;5.308;2023-08-08T17:48:30;18.60;99.90
41471;DHT22;27211;51.220;5.308;2023-08-08T17:50:56;18.80;99.90
41471;DHT22;27211;51.220;5.308;2023-08-08T17:53:24;18.90;99.90
41471;DHT22;27211;51.220;5.308;2023-08-08T17:55:54;18.80;99.90
41471;DHT22;27211;51.220;5.308;2023-08-08T17:58:22;18.90;99.90
41471;DHT22;27211;51.220;5.308;2023-08-08T18:00:50;19.00;99.90
41471;DHT22;27211;51.220;5.308;2023-08-08T18:03:18;18.80;99.90
41471;DHT22;27211;51.220;5.308;2023-08-08T18:05:46;18.40;99.90
41471;DHT22;27211;51.220;5.308;2023-08-08T18:08:13;18.10;99.90
41471;DHT22;27211;51.220;5.308;2023-08-08T18:10:41;17.80;99.90
41471;DHT22;27211;51.220;5.308;2023-08-08T18:13:09;17.70;99.90
41471;DHT22;27211;51.220;5.308;2023-08-08T18:15:37;17.80;99.90
41471;DHT22;27211;51.220;5.308;2023-08-08T18:18:05;17.90;99.90
41471;DHT22;27211;51.220;5.308;2023-08-08T18:20:33;17.80;99.90
41471;DHT22;27211;51.220;5.308;2023-08-08T18:23:00;18.00;99.90
41471;DHT22;27211;51.220;5.308;2023-08-08T18:25:28;17.80;99.90
41471;DHT22;27211;51.220;5.308;2023-08-08T18:27:57;17.90;99.90
41471;DHT22;27211;51.220;5.308;2023-08-08T18:30:27;17.90;99.90
41471;DHT22;27211;51.220;5.308;2023-08-08T18:32:55;17.60;99.90